createdAt,value
2023-02-14T00:02:13.956Z,9.48
2023-02-14T00:04:45.745Z,9.85
2023-02-14T00:07:15.225Z,10.20
2023-02-14T00:09:50.007Z,10.93
2023-02-14T00:12:16.821Z,9.25
2023-02-14T00:15:01.952Z,8.40
2023-02-14T00:17:28.745Z,9.20
2023-02-14T00:19:55.402Z,11.88
2023-02-14T00:22:22.170Z,12.00
2023-02-14T00:24:51.680Z,10.77
2023-02-14T00:27:25.571Z,10.30
2023-02-14T00:29:52.577Z,11.07
2023-02-14T00:32:21.841Z,10.70
2023-02-14T00:34:49.127Z,11.48
2023-02-14T00:37:15.809Z,11.57
2023-02-14T00:39:42.454Z,11.90
2023-02-14T00:42:09.131Z,11.00
2023-02-14T00:44:35.811Z,10.20
2023-02-14T00:47:05.785Z,10.65
2023-02-14T00:49:41.102Z,11.05
2023-02-14T00:52:08.270Z,10.40
2023-02-14T00:54:34.982Z,10.70
2023-02-14T00:57:03.946Z,11.05
2023-02-14T00:59:30.719Z,10.63
2023-02-14T01:01:57.507Z,11.85
2023-02-14T01:04:24.200Z,11.07
2023-02-14T01:06:53.423Z,11.18
2023-02-14T01:09:22.845Z,11.43
2023-02-14T01:11:52.773Z,10.65
2023-02-14T01:14:21.959Z,12.80
2023-02-14T01:16:50.201Z,10.45
2023-02-14T01:19:17.059Z,10.85
2023-02-14T01:21:44.035Z,11.10
2023-02-14T01:24:12.933Z,11.23
2023-02-14T01:26:40.045Z,10.98
2023-02-14T01:29:07.095Z,12.73
2023-02-14T01:31:38.555Z,11.52
2023-02-14T01:34:08.398Z,11.57
2023-02-14T01:36:44.511Z,11.38
2023-02-14T01:39:15.581Z,11.77
2023-02-14T01:41:49.711Z,10.40
2023-02-14T01:44:16.849Z,10.38
2023-02-14T01:46:46.371Z,10.40
2023-02-14T01:49:26.071Z,10.07
2023-02-14T01:52:31.311Z,12.60
2023-02-14T01:55:09.949Z,10.75
2023-02-14T01:58:03.006Z,10.02
2023-02-14T02:00:48.539Z,10.45
2023-02-14T02:03:19.826Z,11.20
2023-02-14T02:05:57.718Z,11.40
2023-02-14T02:08:25.257Z,12.30
2023-02-14T02:10:55.102Z,11.98
2023-02-14T02:13:25.424Z,12.82
2023-02-14T02:16:29.823Z,13.27
2023-02-14T02:20:13.916Z,12.40
2023-02-14T02:23:33.804Z,14.43
2023-02-14T02:26:33.786Z,13.88
2023-02-14T02:29:08.069Z,13.15
2023-02-14T02:35:20.862Z,12.13
2023-02-14T02:38:24.783Z,13.27
2023-02-14T02:41:28.544Z,13.85
2023-02-14T02:44:26.752Z,14.32
2023-02-14T02:47:37.369Z,13.23
2023-02-14T02:50:59.034Z,13.45
2023-02-14T02:53:48.887Z,14.98
2023-02-14T02:56:47.277Z,13.90
2023-02-14T02:59:28.408Z,13.90
2023-02-14T03:02:18.391Z,14.02
2023-02-14T03:04:59.458Z,13.80
2023-02-14T03:07:41.979Z,13.68
2023-02-14T03:10:16.009Z,12.93
2023-02-14T03:13:08.204Z,14.55
2023-02-14T03:16:22.055Z,13.68
2023-02-14T03:19:34.904Z,13.65
2023-02-14T03:22:41.586Z,12.32
2023-02-14T03:25:41.735Z,13.60
2023-02-14T03:28:22.264Z,14.35
2023-02-14T03:31:20.840Z,13.70
2023-02-14T03:34:35.341Z,12.55
2023-02-14T03:37:55.516Z,13.65
2023-02-14T03:40:34.518Z,14.18
2023-02-14T03:43:10.238Z,15.27
2023-02-14T03:45:51.933Z,14.25
2023-02-14T03:48:28.975Z,15.38
2023-02-14T03:51:04.242Z,15.25
2023-02-14T03:53:38.939Z,17.30
2023-02-14T03:56:32.178Z,17.02
2023-02-14T03:59:16.546Z,17.35
2023-02-14T04:01:59.715Z,18.08
2023-02-14T04:04:38.286Z,18.40
2023-02-14T04:07:22.429Z,17.63
2023-02-14T04:09:52.666Z,18.17
2023-02-14T04:12:32.234Z,17.67
2023-02-14T04:15:05.043Z,18.92
2023-02-14T04:17:50.487Z,19.08
2023-02-14T04:20:17.557Z,20.90
2023-02-14T04:22:46.189Z,22.00
2023-02-14T04:25:14.770Z,20.25
2023-02-14T04:27:41.932Z,21.23
2023-02-14T04:30:10.276Z,21.77
2023-02-14T04:32:36.976Z,21.73
2023-02-14T04:35:09.445Z,22.83
2023-02-14T04:37:36.428Z,23.52
2023-02-14T04:40:04.028Z,22.70
2023-02-14T04:42:30.676Z,24.30
2023-02-14T04:45:01.425Z,23.38
2023-02-14T04:47:36.002Z,21.40
2023-02-14T04:50:03.381Z,23.98
2023-02-14T04:52:30.028Z,23.13
2023-02-14T04:54:56.834Z,22.48
2023-02-14T04:57:23.564Z,21.83
2023-02-14T04:59:50.355Z,23.23
2023-02-14T05:02:16.946Z,24.17
2023-02-14T05:04:48.819Z,23.80
2023-02-14T05:07:16.697Z,21.58
2023-02-14T05:09:43.422Z,24.08
2023-02-14T05:12:10.253Z,23.60
2023-02-14T05:14:43.459Z,22.00
2023-02-14T05:17:10.153Z,23.10
2023-02-14T05:19:37.010Z,22.05
2023-02-14T05:22:04.342Z,21.10
2023-02-14T05:24:31.180Z,21.38
2023-02-14T05:26:57.925Z,21.08
2023-02-14T05:29:25.009Z,22.98
2023-02-14T05:31:51.644Z,22.70
2023-02-14T05:34:21.790Z,21.13
2023-02-14T05:36:51.120Z,22.10
2023-02-14T05:39:17.916Z,21.70
2023-02-14T05:41:44.545Z,22.33
2023-02-14T05:44:11.574Z,22.35
2023-02-14T05:46:38.422Z,20.40
2023-02-14T05:49:05.075Z,21.90
2023-02-14T05:51:31.739Z,21.30
2023-02-14T05:54:00.029Z,21.98
2023-02-14T05:56:29.785Z,19.50
2023-02-14T05:58:59.590Z,20.50
2023-02-14T06:20:22.651Z,19.50
2023-02-14T06:22:54.314Z,18.42
2023-02-14T06:25:23.619Z,18.48
2023-02-14T06:52:07.591Z,20.77
2023-02-14T07:05:22.673Z,18.52
2023-02-14T07:29:28.630Z,21.00
2023-02-14T07:31:55.473Z,19.25
2023-02-14T07:34:22.165Z,19.67
2023-02-14T07:36:51.653Z,20.88
2023-02-14T07:39:18.324Z,19.38
2023-02-14T07:41:44.946Z,19.35
2023-02-14T07:44:11.889Z,18.48
2023-02-14T07:46:38.889Z,20.27
2023-02-14T07:49:05.708Z,20.77
2023-02-14T07:51:37.789Z,21.70
2023-02-14T07:54:05.090Z,22.67
2023-02-14T07:56:34.593Z,21.45
2023-02-14T07:59:01.457Z,22.27
2023-02-14T08:01:28.334Z,20.27
2023-02-14T08:03:57.829Z,21.90
2023-02-14T08:06:26.072Z,19.77
2023-02-14T08:08:52.862Z,20.33
2023-02-14T08:11:42.699Z,20.23
2023-02-14T08:14:09.487Z,20.10
2023-02-14T08:16:38.076Z,22.42
2023-02-14T08:19:04.730Z,21.73
2023-02-14T08:21:33.852Z,23.15
2023-02-14T08:24:00.722Z,21.48
2023-02-14T08:26:27.444Z,22.88
2023-02-14T08:28:54.348Z,23.35
2023-02-14T08:31:35.163Z,22.52
2023-02-14T08:34:03.195Z,23.52
2023-02-14T08:36:29.955Z,23.25
2023-02-14T08:38:57.666Z,22.33
2023-02-14T08:41:24.878Z,22.10
2023-02-14T08:43:52.157Z,22.50
2023-02-14T08:46:25.022Z,23.20
2023-02-14T08:48:53.344Z,24.38
2023-02-14T08:51:23.914Z,25.30
2023-02-14T08:53:52.022Z,22.63
2023-02-14T08:56:21.462Z,23.23
2023-02-14T08:58:51.234Z,22.05
2023-02-14T09:01:20.776Z,24.50
2023-02-14T09:03:49.625Z,23.30
2023-02-14T09:06:17.940Z,24.38
2023-02-14T09:08:45.777Z,24.30
2023-02-14T09:11:19.155Z,24.38
2023-02-14T09:13:47.506Z,25.37
2023-02-14T09:16:20.155Z,25.13
2023-02-14T09:18:52.928Z,25.63
2023-02-14T09:21:26.331Z,24.25
2023-02-14T09:23:53.980Z,23.17
2023-02-14T09:26:24.193Z,25.50
2023-02-14T09:28:51.015Z,24.17
2023-02-14T09:31:25.772Z,26.13
2023-02-14T09:33:52.691Z,24.73
2023-02-14T09:36:38.331Z,26.42
2023-02-14T09:39:05.116Z,24.08
2023-02-14T09:43:09.804Z,24.30
2023-02-14T09:45:50.581Z,21.83
2023-02-14T09:48:50.713Z,23.52
2023-02-14T09:51:30.036Z,23.85
2023-02-14T09:54:14.188Z,26.20
2023-02-14T09:57:22.435Z,23.15
2023-02-14T10:00:28.945Z,24.80
2023-02-14T10:03:06.207Z,23.83
2023-02-14T10:05:57.941Z,23.67
2023-02-14T10:08:50.879Z,24.77
2023-02-14T10:11:23.093Z,21.23
2023-02-14T10:14:04.130Z,24.52
2023-02-14T10:17:16.824Z,23.33
2023-02-14T10:19:58.346Z,23.17
2023-02-14T10:22:44.613Z,21.75
2023-02-14T10:25:29.180Z,22.67
2023-02-14T10:28:01.711Z,22.88
2023-02-14T10:30:59.981Z,22.30
2023-02-14T10:33:41.467Z,23.08
2023-02-14T10:37:10.451Z,24.15
2023-02-14T10:40:16.004Z,22.75
2023-02-14T10:43:16.072Z,23.85
2023-02-14T10:46:13.571Z,23.48
2023-02-14T10:49:47.102Z,23.38
2023-02-14T10:52:59.350Z,28.38
2023-02-14T10:56:09.762Z,24.38
2023-02-14T10:58:41.259Z,25.52
2023-02-14T11:01:17.365Z,27.15
2023-02-14T11:04:04.174Z,25.35
2023-02-14T11:06:31.732Z,24.38
2023-02-14T11:08:59.230Z,22.63
2023-02-14T11:11:42.865Z,22.33
2023-02-14T11:14:32.485Z,25.30
2023-02-14T11:17:35.866Z,22.40
2023-02-14T11:20:28.731Z,26.05
2023-02-14T11:22:55.359Z,27.08
2023-02-14T11:25:35.601Z,23.85
2023-02-14T11:28:08.394Z,25.90
2023-02-14T11:30:50.039Z,24.52
2023-02-14T11:33:35.083Z,23.58
2023-02-14T11:36:09.833Z,22.73
2023-02-14T11:38:43.940Z,22.00
2023-02-14T11:41:16.876Z,23.95
2023-02-14T11:43:52.156Z,23.23
2023-02-14T11:46:21.441Z,25.20
2023-02-14T11:49:07.153Z,25.25
2023-02-14T11:51:45.506Z,24.15
2023-02-14T11:54:34.891Z,25.02
2023-02-14T11:57:13.587Z,24.50
2023-02-14T11:59:58.125Z,24.73
2023-02-14T12:02:51.574Z,23.55
2023-02-14T12:05:53.937Z,25.25
2023-02-14T12:08:31.652Z,23.65
2023-02-14T12:11:26.396Z,23.63
2023-02-14T12:13:58.632Z,23.90
2023-02-14T12:17:01.689Z,24.08
2023-02-14T12:20:16.625Z,24.70
2023-02-14T12:23:10.431Z,24.10
2023-02-14T12:26:00.196Z,23.30
2023-02-14T12:28:43.993Z,25.75
2023-02-14T12:31:17.400Z,22.57
2023-02-14T12:33:46.366Z,24.00
2023-02-14T12:36:57.477Z,24.05
2023-02-14T12:39:49.520Z,20.70
2023-02-14T12:42:48.824Z,23.27
2023-02-14T12:46:14.272Z,23.23
2023-02-14T12:49:37.967Z,24.05
2023-02-14T12:52:47.469Z,22.13
2023-02-14T12:55:33.096Z,23.83
2023-02-14T12:58:28.995Z,24.38
2023-02-14T13:01:43.065Z,24.88
2023-02-14T13:05:08.432Z,23.25
2023-02-14T13:08:23.821Z,23.20
2023-02-14T13:11:21.665Z,22.95
2023-02-14T13:14:16.172Z,22.27
2023-02-14T13:17:23.915Z,23.30
2023-02-14T13:20:50.412Z,23.13
2023-02-14T13:23:43.572Z,22.23
2023-02-14T13:26:19.016Z,23.17
2023-02-14T13:29:05.942Z,22.55
2023-02-14T13:31:34.379Z,23.30
2023-02-14T13:34:25.161Z,23.60
2023-02-14T13:36:55.499Z,24.65
2023-02-14T13:39:54.761Z,21.92
2023-02-14T13:42:57.108Z,22.15
2023-02-14T13:45:32.789Z,21.23
2023-02-14T13:48:21.905Z,20.35
2023-02-14T13:51:02.444Z,22.05
2023-02-14T13:53:50.238Z,23.95
2023-02-14T13:56:16.794Z,23.23
2023-02-14T13:59:03.153Z,22.90
2023-02-14T14:01:50.472Z,21.58
2023-02-14T14:04:26.237Z,20.60
2023-02-14T14:07:04.965Z,22.65
2023-02-14T14:09:54.817Z,22.73
2023-02-14T14:12:27.417Z,21.40
2023-02-14T14:15:06.098Z,22.05
2023-02-14T14:18:15.336Z,21.13
2023-02-14T14:20:55.468Z,22.13
2023-02-14T14:23:37.170Z,22.65
2023-02-14T14:26:35.069Z,21.08
2023-02-14T14:29:03.227Z,21.88
2023-02-14T14:31:30.349Z,21.83
2023-02-14T14:34:01.002Z,21.13
2023-02-14T14:36:28.229Z,24.70
2023-02-14T14:38:54.898Z,23.65
2023-02-14T14:41:31.730Z,22.05
2023-02-14T14:44:00.220Z,24.77
2023-02-14T14:46:27.903Z,23.00
2023-02-14T14:48:57.559Z,23.77
2023-02-14T14:51:36.037Z,24.77
2023-02-14T14:54:27.533Z,22.85
2023-02-14T14:57:02.797Z,22.08
2023-02-14T14:59:40.306Z,23.20
2023-02-14T15:02:27.896Z,22.35
2023-02-14T15:04:54.655Z,21.40
2023-02-14T15:07:33.273Z,23.92
2023-02-14T15:10:01.215Z,22.60
2023-02-14T15:12:48.421Z,25.80
2023-02-14T15:15:18.990Z,24.58
2023-02-14T15:17:51.441Z,25.17
2023-02-14T15:20:24.380Z,23.20
2023-02-14T15:22:53.809Z,24.55
2023-02-14T15:25:34.861Z,26.90
2023-02-14T15:28:02.700Z,27.67
2023-02-14T15:30:49.380Z,24.90
2023-02-14T15:33:16.347Z,25.35
2023-02-14T15:35:45.789Z,26.08
2023-02-14T15:38:18.164Z,26.17
2023-02-14T15:40:52.194Z,29.27
2023-02-14T15:43:18.757Z,29.75
2023-02-14T15:46:20.788Z,29.35
2023-02-14T15:48:48.515Z,28.45
2023-02-14T15:51:27.029Z,28.42
2023-02-14T15:54:25.373Z,27.60
2023-02-14T15:56:54.160Z,27.55
2023-02-14T15:59:32.036Z,27.70
2023-02-14T16:02:17.674Z,29.25
2023-02-14T16:04:49.062Z,31.58
2023-02-14T16:07:29.884Z,36.63
2023-02-14T16:10:38.490Z,32.00
2023-02-14T16:13:30.266Z,30.85
2023-02-14T16:16:12.302Z,28.80
2023-02-14T16:29:52.460Z,28.27
2023-02-14T16:32:24.398Z,30.90
2023-02-14T16:34:51.407Z,30.35
2023-02-14T16:37:33.186Z,30.17
2023-02-14T16:40:13.248Z,31.50
2023-02-14T16:42:44.283Z,31.00
2023-02-14T16:45:19.462Z,31.15
2023-02-14T16:47:52.263Z,32.72
2023-02-14T16:50:22.310Z,35.95
2023-02-14T16:52:51.972Z,34.00
2023-02-14T16:55:20.542Z,32.05
2023-02-14T16:57:54.614Z,31.90
2023-02-14T17:00:22.734Z,31.98
2023-02-14T17:02:52.499Z,32.83
2023-02-14T17:05:24.376Z,34.28
2023-02-14T17:07:51.507Z,30.02
2023-02-14T17:10:21.127Z,36.28
2023-02-14T17:12:52.773Z,34.90
2023-02-14T17:15:31.074Z,36.50
2023-02-14T18:04:36.223Z,36.05
2023-02-14T18:07:05.294Z,37.05
2023-02-14T18:09:35.079Z,37.95
2023-02-14T18:12:04.181Z,38.55
2023-02-14T18:14:31.645Z,40.53
2023-02-14T18:16:58.647Z,38.75
2023-02-14T18:19:25.615Z,37.28
2023-02-14T18:21:53.480Z,39.40
2023-02-14T18:24:21.154Z,38.20
2023-02-14T18:40:20.627Z,38.10
2023-02-14T19:18:03.581Z,38.88
2023-02-14T19:20:34.726Z,37.65
2023-02-14T19:23:02.153Z,38.05
2023-02-14T19:25:29.434Z,41.50
2023-02-14T19:27:59.358Z,41.45
2023-02-14T19:30:26.054Z,43.63
2023-02-14T19:32:59.030Z,42.85
2023-02-14T19:35:25.839Z,43.05
2023-02-14T19:37:54.546Z,42.75
2023-02-14T19:40:22.039Z,44.03
2023-02-14T19:42:53.841Z,45.83
2023-02-14T19:45:20.513Z,43.58
2023-02-14T19:47:56.983Z,44.40
2023-02-14T21:09:38.952Z,43.53
2023-02-14T21:28:23.569Z,46.30
2023-02-14T21:30:55.512Z,47.60
2023-02-14T21:33:25.302Z,45.28
2023-02-14T21:35:51.916Z,46.63
2023-02-14T21:38:18.635Z,48.15
2023-02-14T21:40:45.455Z,47.20
2023-02-14T21:43:12.164Z,46.83
2023-02-14T21:45:56.236Z,47.45
2023-02-14T21:48:52.322Z,47.58
2023-02-14T21:51:22.936Z,46.88
2023-02-14T21:53:50.911Z,43.28
2023-02-14T21:56:20.782Z,49.10
2023-02-14T21:58:51.304Z,49.80
2023-02-14T22:01:28.633Z,48.90
2023-02-14T22:04:04.901Z,45.78
2023-02-14T22:06:31.537Z,44.05
2023-02-14T22:09:03.704Z,49.30
2023-02-14T22:11:34.596Z,49.90
2023-02-14T22:14:01.460Z,50.40
2023-02-14T22:16:28.866Z,47.05
2023-02-14T22:18:59.181Z,48.20
2023-02-14T22:21:27.073Z,46.90
2023-02-14T22:23:59.125Z,46.92
2023-02-14T22:26:52.093Z,50.53
2023-02-14T22:29:18.838Z,46.30
2023-02-14T22:31:46.197Z,47.15
2023-02-14T22:34:17.835Z,49.67
2023-02-14T22:36:44.800Z,47.78
2023-02-14T22:39:16.078Z,49.47
2023-02-14T22:41:43.820Z,49.63
2023-02-14T22:44:12.457Z,51.58
2023-02-14T22:46:43.727Z,49.70
2023-02-14T22:49:10.465Z,50.95
2023-02-14T22:51:43.117Z,47.95
2023-02-14T22:54:17.652Z,47.08
2023-02-14T22:56:51.434Z,50.95
2023-02-14T22:59:28.657Z,50.08
2023-02-14T23:01:58.020Z,48.92
2023-02-14T23:04:26.127Z,49.45
2023-02-14T23:06:53.998Z,51.83
2023-02-14T23:09:23.092Z,51.97
2023-02-14T23:11:51.166Z,52.15
2023-02-14T23:14:38.241Z,50.17
2023-02-14T23:17:18.547Z,50.95
2023-02-14T23:20:06.039Z,51.47
2023-02-14T23:22:38.127Z,50.90
2023-02-14T23:25:12.225Z,53.10
2023-02-14T23:27:47.491Z,50.30
2023-02-14T23:30:18.942Z,54.05
2023-02-14T23:32:46.032Z,55.58
2023-02-14T23:35:13.641Z,54.53
2023-02-14T23:37:43.538Z,55.40
2023-02-14T23:40:11.093Z,55.38
2023-02-14T23:42:37.716Z,52.13
2023-02-14T23:45:23.720Z,51.95
2023-02-14T23:47:50.760Z,58.25
2023-02-14T23:50:17.810Z,54.90
2023-02-14T23:52:44.685Z,54.17
2023-02-14T23:55:17.306Z,55.40
2023-02-14T23:57:44.012Z,56.58
